createdAt,value
2022-10-25T00:00:03.759Z,15.77
2022-10-25T00:02:30.142Z,15.69
2022-10-25T00:04:56.426Z,15.63
2022-10-25T00:07:22.769Z,15.62
2022-10-25T00:09:49.094Z,15.44
2022-10-25T00:12:15.476Z,15.30
2022-10-25T00:14:41.809Z,15.23
2022-10-25T00:17:08.161Z,15.27
2022-10-25T00:19:34.500Z,15.34
2022-10-25T00:22:00.850Z,15.28
2022-10-25T00:24:27.189Z,15.36
2022-10-25T00:26:53.507Z,15.34
2022-10-25T00:29:19.893Z,15.15
2022-10-25T00:31:46.179Z,15.10
2022-10-25T00:34:12.504Z,15.14
2022-10-25T00:36:38.880Z,15.07
2022-10-25T00:39:05.186Z,15.00
2022-10-25T00:41:31.533Z,15.04
2022-10-25T00:43:57.875Z,15.08
2022-10-25T00:46:24.233Z,15.07
2022-10-25T00:48:50.569Z,15.01
2022-10-25T00:51:16.906Z,15.00
2022-10-25T00:53:43.249Z,14.92
2022-10-25T00:56:09.660Z,14.89
2022-10-25T00:58:36.006Z,14.87
2022-10-25T01:01:02.400Z,14.88
2022-10-25T01:03:28.708Z,14.95
2022-10-25T01:05:55.066Z,14.94
2022-10-25T01:08:21.389Z,15.02
2022-10-25T01:10:47.735Z,15.02
2022-10-25T01:13:14.058Z,15.06
2022-10-25T01:15:40.404Z,15.00
2022-10-25T01:18:06.773Z,15.01
2022-10-25T01:20:33.116Z,15.06
2022-10-25T01:22:59.433Z,15.10
2022-10-25T01:25:25.787Z,15.19
2022-10-25T01:27:52.149Z,15.16
2022-10-25T01:30:18.463Z,15.07
2022-10-25T01:32:45.081Z,14.95
2022-10-25T01:35:11.168Z,14.90
2022-10-25T01:37:37.517Z,14.78
2022-10-25T01:40:03.848Z,14.67
2022-10-25T01:42:30.195Z,14.72
2022-10-25T01:44:56.545Z,14.72
2022-10-25T01:47:22.900Z,14.66
2022-10-25T01:49:49.222Z,14.35
2022-10-25T01:52:15.542Z,14.34
2022-10-25T01:54:41.923Z,14.40
2022-10-25T01:57:08.238Z,14.30
2022-10-25T01:59:34.582Z,14.32
2022-10-25T02:02:00.899Z,14.35
2022-10-25T02:04:27.252Z,14.36
2022-10-25T02:06:53.568Z,14.34
2022-10-25T02:09:19.955Z,14.39
2022-10-25T02:11:46.291Z,14.38
2022-10-25T02:14:12.614Z,14.29
2022-10-25T02:16:38.974Z,14.25
2022-10-25T02:19:05.333Z,14.23
2022-10-25T02:21:31.650Z,14.19
2022-10-25T02:23:58.036Z,14.20
2022-10-25T02:26:24.353Z,14.19
2022-10-25T02:28:50.683Z,14.14
2022-10-25T02:31:17.025Z,14.18
2022-10-25T02:33:43.373Z,14.22
2022-10-25T02:36:09.690Z,14.26
2022-10-25T02:38:36.020Z,14.30
2022-10-25T02:41:02.377Z,14.40
2022-10-25T02:45:55.047Z,14.19
2022-10-25T02:48:21.372Z,14.20
2022-10-25T02:50:47.714Z,14.24
2022-10-25T02:53:14.030Z,14.04
2022-10-25T02:55:40.349Z,13.75
2022-10-25T02:58:06.731Z,13.67
2022-10-25T03:00:33.143Z,13.45
2022-10-25T03:02:59.430Z,13.58
2022-10-25T03:05:25.754Z,13.61
2022-10-25T03:07:52.107Z,13.53
2022-10-25T03:10:18.428Z,13.46
2022-10-25T03:12:45.053Z,13.31
2022-10-25T03:15:11.133Z,13.30
2022-10-25T03:17:37.474Z,13.37
2022-10-25T03:20:03.805Z,13.49
2022-10-25T03:22:30.163Z,13.38
2022-10-25T03:24:56.542Z,13.34
2022-10-25T03:27:22.850Z,13.43
2022-10-25T03:29:49.208Z,13.58
2022-10-25T03:32:15.529Z,13.58
2022-10-25T03:34:41.871Z,13.42
2022-10-25T03:37:08.256Z,13.37
2022-10-25T03:39:34.566Z,13.36
2022-10-25T03:42:00.916Z,13.19
2022-10-25T03:44:27.237Z,13.10
2022-10-25T03:46:53.593Z,13.13
2022-10-25T03:49:19.943Z,12.99
2022-10-25T03:51:46.270Z,12.93
2022-10-25T03:54:12.590Z,13.07
2022-10-25T03:56:38.938Z,13.28
2022-10-25T03:59:05.254Z,13.15
2022-10-25T04:01:31.699Z,13.15
2022-10-25T04:03:57.961Z,13.31
2022-10-25T04:06:24.275Z,13.34
2022-10-25T04:08:50.590Z,13.23
2022-10-25T04:11:16.941Z,13.17
2022-10-25T04:13:43.267Z,13.08
2022-10-25T04:16:10.231Z,12.98
2022-10-25T04:18:36.582Z,13.01
2022-10-25T04:21:02.905Z,13.12
2022-10-25T04:23:29.247Z,13.14
2022-10-25T04:25:55.662Z,12.98
2022-10-25T04:28:21.982Z,12.85
2022-10-25T04:30:48.311Z,12.88
2022-10-25T04:33:14.631Z,12.85
2022-10-25T04:35:40.980Z,12.84
2022-10-25T04:38:07.299Z,12.83
2022-10-25T04:40:33.642Z,12.89
2022-10-25T04:42:59.968Z,12.92
2022-10-25T04:45:26.317Z,12.91
2022-10-25T04:47:52.629Z,13.04
2022-10-25T04:50:18.993Z,13.17
2022-10-25T04:52:45.581Z,13.17
2022-10-25T04:55:11.650Z,13.17
2022-10-25T04:57:38.007Z,13.20
2022-10-25T05:00:04.352Z,13.09
2022-10-25T05:02:30.711Z,13.09
2022-10-25T05:04:57.055Z,13.29
2022-10-25T05:07:23.376Z,13.50
2022-10-25T05:09:49.726Z,13.60
2022-10-25T05:12:16.042Z,13.58
2022-10-25T05:14:42.367Z,13.66
2022-10-25T05:17:08.698Z,13.65
2022-10-25T05:19:35.051Z,13.88
2022-10-25T05:22:01.383Z,14.28
2022-10-25T05:24:27.724Z,14.52
2022-10-25T05:26:54.048Z,14.69
2022-10-25T05:29:20.481Z,14.83
2022-10-25T05:31:46.814Z,14.85
2022-10-25T05:34:13.163Z,14.75
2022-10-25T05:36:39.506Z,14.75
2022-10-25T05:39:05.840Z,14.87
2022-10-25T05:41:34.813Z,15.01
2022-10-25T05:43:58.544Z,14.98
2022-10-25T05:46:24.877Z,14.91
2022-10-25T05:48:51.267Z,15.05
2022-10-25T05:53:43.916Z,15.33
2022-10-25T05:56:10.272Z,15.30
2022-10-25T05:58:36.593Z,15.50
2022-10-25T06:01:03.041Z,15.40
2022-10-25T06:03:29.276Z,15.63
2022-10-25T06:05:55.591Z,15.88
2022-10-25T06:08:21.943Z,15.88
2022-10-25T06:13:14.654Z,16.72
2022-10-25T06:15:40.993Z,16.99
2022-10-25T06:18:07.341Z,17.21
2022-10-25T06:20:33.750Z,17.45
2022-10-25T06:23:00.047Z,17.72
2022-10-25T06:25:26.378Z,18.15
2022-10-25T06:27:52.713Z,17.89
2022-10-25T06:30:19.140Z,17.75
2022-10-25T06:32:45.815Z,18.22
2022-10-25T06:35:11.767Z,18.38
2022-10-25T06:37:38.110Z,18.31
2022-10-25T06:40:04.464Z,18.50
2022-10-25T06:42:30.801Z,18.95
2022-10-25T06:44:57.149Z,19.08
2022-10-25T06:47:23.460Z,18.94
2022-10-25T06:49:49.809Z,18.69
2022-10-25T06:52:16.149Z,18.70
2022-10-25T06:54:42.483Z,18.59
2022-10-25T06:57:08.824Z,18.76
2022-10-25T06:59:35.140Z,19.04
2022-10-25T07:02:01.641Z,19.43
2022-10-25T07:04:27.832Z,19.70
2022-10-25T07:06:55.348Z,20.10
2022-10-25T07:09:20.535Z,20.09
2022-10-25T07:11:46.883Z,20.35
2022-10-25T07:14:13.216Z,20.29
2022-10-25T07:16:39.752Z,20.49
2022-10-25T07:19:06.068Z,20.82
2022-10-25T07:21:32.462Z,21.32
2022-10-25T07:23:58.888Z,21.33
2022-10-25T07:26:25.243Z,21.66
2022-10-25T07:28:51.557Z,22.08
2022-10-25T07:31:17.953Z,22.48
2022-10-25T07:33:44.299Z,22.85
2022-10-25T07:36:11.630Z,22.99
2022-10-25T07:38:37.008Z,23.07
2022-10-25T07:41:03.350Z,22.84
2022-10-25T07:43:29.695Z,22.59
2022-10-25T07:45:56.048Z,22.85
2022-10-25T07:48:22.366Z,22.98
2022-10-25T07:50:48.692Z,22.79
2022-10-25T07:53:15.177Z,22.73
2022-10-25T07:55:41.503Z,23.08
2022-10-25T07:58:07.819Z,23.84
2022-10-25T08:00:34.189Z,24.65
2022-10-25T08:03:00.594Z,25.21
2022-10-25T08:05:26.856Z,25.06
2022-10-25T08:07:53.230Z,25.15
2022-10-25T08:10:19.584Z,24.84
2022-10-25T08:12:45.925Z,24.74
2022-10-25T08:15:12.381Z,24.76
2022-10-25T08:17:38.718Z,24.96
2022-10-25T08:20:05.079Z,25.17
2022-10-25T08:22:31.397Z,25.37
2022-10-25T08:24:57.720Z,25.43
2022-10-25T08:27:24.056Z,25.23
2022-10-25T08:29:50.378Z,24.94
2022-10-25T08:32:16.717Z,24.88
2022-10-25T08:34:43.060Z,25.46
2022-10-25T08:37:09.382Z,25.82
2022-10-25T08:39:35.729Z,26.08
2022-10-25T08:42:02.076Z,26.02
2022-10-25T08:44:28.425Z,25.69
2022-10-25T08:46:54.758Z,26.03
2022-10-25T08:49:21.125Z,26.09
2022-10-25T08:51:47.438Z,26.59
2022-10-25T08:54:13.788Z,27.00
2022-10-25T08:56:51.234Z,26.46
2022-10-25T08:59:06.482Z,25.99
2022-10-25T09:01:32.859Z,26.82
2022-10-25T09:03:59.156Z,27.38
2022-10-25T09:06:25.497Z,27.48
2022-10-25T09:08:51.820Z,28.13
2022-10-25T09:11:18.144Z,27.87
2022-10-25T09:13:44.489Z,27.99
2022-10-25T09:16:10.827Z,28.07
2022-10-25T09:18:37.161Z,28.44
2022-10-25T09:21:03.492Z,28.43
2022-10-25T09:23:29.817Z,28.38
2022-10-25T09:25:56.185Z,28.55
2022-10-25T09:28:22.535Z,28.94
2022-10-25T09:30:48.884Z,29.06
2022-10-25T09:35:41.593Z,28.88
2022-10-25T09:38:07.922Z,29.06
2022-10-25T09:40:34.268Z,29.02
2022-10-25T09:43:00.622Z,29.17
2022-10-25T09:45:26.959Z,29.20
2022-10-25T09:47:53.272Z,29.16
2022-10-25T09:50:19.621Z,28.90
2022-10-25T09:52:45.957Z,29.26
2022-10-25T09:55:12.312Z,29.58
2022-10-25T09:57:38.626Z,29.78
2022-10-25T10:00:04.978Z,29.60
2022-10-25T10:02:31.447Z,29.38
2022-10-25T10:04:57.704Z,29.22
2022-10-25T10:07:24.040Z,29.15
2022-10-25T10:09:50.389Z,29.10
2022-10-25T10:12:16.709Z,28.92
2022-10-25T10:14:43.039Z,29.03
2022-10-25T10:17:09.395Z,28.90
2022-10-25T10:19:35.722Z,28.67
2022-10-25T10:22:02.083Z,28.62
2022-10-25T10:24:28.373Z,28.81
2022-10-25T10:26:54.749Z,29.12
2022-10-25T10:29:21.158Z,29.00
2022-10-25T10:31:47.453Z,28.92
2022-10-25T10:34:13.845Z,29.08
2022-10-25T10:36:40.169Z,29.16
2022-10-25T10:39:06.498Z,29.45
2022-10-25T10:41:32.855Z,29.89
2022-10-25T10:43:59.179Z,30.10
2022-10-25T10:46:25.498Z,29.93
2022-10-25T10:48:51.869Z,29.69
2022-10-25T10:51:42.961Z,29.66
2022-10-25T10:53:44.503Z,29.70
2022-10-25T10:56:10.823Z,29.96
2022-10-25T10:58:37.156Z,30.21
2022-10-25T11:01:03.597Z,30.37
2022-10-25T11:03:29.831Z,30.34
2022-10-25T11:05:56.170Z,30.19
2022-10-25T11:08:22.486Z,30.28
2022-10-25T11:10:48.813Z,30.57
2022-10-25T11:13:15.162Z,30.86
2022-10-25T11:15:41.534Z,30.72
2022-10-25T11:18:07.850Z,30.94
2022-10-25T11:20:34.202Z,30.90
2022-10-25T11:23:04.233Z,30.80
2022-10-25T11:25:26.897Z,31.03
2022-10-25T11:27:53.231Z,31.20
2022-10-25T11:30:19.595Z,31.39
2022-10-25T11:32:47.673Z,31.55
2022-10-25T11:35:12.259Z,31.58
2022-10-25T11:37:38.598Z,31.54
2022-10-25T11:40:04.940Z,31.61
2022-10-25T11:42:31.266Z,31.49
2022-10-25T11:44:57.583Z,32.16
2022-10-25T11:47:23.947Z,32.49
2022-10-25T11:49:54.691Z,32.83
2022-10-25T11:52:16.648Z,32.92
2022-10-25T11:54:43.005Z,33.08
2022-10-25T11:57:09.320Z,32.66
2022-10-25T11:59:35.658Z,33.06
2022-10-25T12:02:02.009Z,33.08
2022-10-25T12:04:29.549Z,32.65
2022-10-25T12:06:54.683Z,32.47
2022-10-25T12:09:21.008Z,32.71
2022-10-25T12:11:47.331Z,32.90
2022-10-25T12:14:13.684Z,32.88
2022-10-25T12:16:40.022Z,32.84
2022-10-25T12:19:06.397Z,33.24
2022-10-25T12:21:32.720Z,33.62
2022-10-25T12:23:59.062Z,33.47
2022-10-25T12:26:25.392Z,33.18
2022-10-25T12:28:51.712Z,33.28
2022-10-25T12:31:18.041Z,33.62
2022-10-25T12:33:44.370Z,34.23
2022-10-25T12:36:10.713Z,33.97
2022-10-25T12:38:37.028Z,34.05
2022-10-25T12:41:03.354Z,34.11
2022-10-25T12:43:29.686Z,33.98
2022-10-25T12:45:58.401Z,34.05
2022-10-25T12:48:22.354Z,34.11
2022-10-25T12:50:48.679Z,33.51
2022-10-25T12:53:14.999Z,33.38
2022-10-25T12:55:41.372Z,33.08
2022-10-25T12:58:07.737Z,33.10
2022-10-25T13:00:34.084Z,33.37
2022-10-25T13:03:00.452Z,33.65
2022-10-25T13:05:26.789Z,33.84
2022-10-25T13:07:53.106Z,33.63
2022-10-25T13:10:19.483Z,33.63
2022-10-25T13:12:46.253Z,33.74
2022-10-25T13:15:12.152Z,33.53
2022-10-25T13:17:38.527Z,33.04
2022-10-25T13:20:04.943Z,32.54
2022-10-25T13:22:34.270Z,31.89
2022-10-25T13:24:57.574Z,31.31
2022-10-25T13:27:23.908Z,30.83
2022-10-25T13:29:50.229Z,30.81
2022-10-25T13:32:16.607Z,30.70
2022-10-25T13:34:42.916Z,30.38
2022-10-25T13:37:09.261Z,30.21
2022-10-25T13:39:35.626Z,30.12
2022-10-25T13:42:01.941Z,29.81
2022-10-25T13:44:28.300Z,29.81
2022-10-25T13:46:54.641Z,29.84
2022-10-25T13:49:20.985Z,29.62
2022-10-25T13:51:47.328Z,29.62
2022-10-25T13:54:13.668Z,29.62
2022-10-25T13:56:39.991Z,29.59
2022-10-25T13:59:06.337Z,29.55
2022-10-25T14:01:32.742Z,29.41
2022-10-25T14:03:59.025Z,29.32
2022-10-25T14:06:25.400Z,29.22
2022-10-25T14:08:51.714Z,29.17
2022-10-25T14:11:18.054Z,29.19
2022-10-25T14:13:44.407Z,29.26
2022-10-25T14:16:10.750Z,29.30
2022-10-25T14:18:37.074Z,29.37
2022-10-25T14:21:03.396Z,29.40
2022-10-25T14:23:29.732Z,29.30
2022-10-25T14:25:56.081Z,29.27
2022-10-25T14:28:22.454Z,29.20
2022-10-25T14:30:48.795Z,29.15
2022-10-25T14:33:15.121Z,29.12
2022-10-25T14:35:41.503Z,28.94
2022-10-25T14:38:07.846Z,28.76
2022-10-25T14:40:34.192Z,28.48
2022-10-25T14:43:00.539Z,28.33
2022-10-25T14:45:26.855Z,28.29
2022-10-25T14:47:53.206Z,28.25
2022-10-25T14:50:19.529Z,28.22
2022-10-25T14:52:46.105Z,28.18
2022-10-25T14:55:12.183Z,28.09
2022-10-25T14:57:38.510Z,28.02
2022-10-25T15:00:04.851Z,28.03
2022-10-25T15:02:31.173Z,28.04
2022-10-25T15:04:57.497Z,27.99
2022-10-25T15:07:23.826Z,27.89
2022-10-25T15:09:50.188Z,27.77
2022-10-25T15:12:16.517Z,27.70
2022-10-25T15:14:42.883Z,27.69
2022-10-25T15:17:09.195Z,27.64
2022-10-25T15:19:35.550Z,27.55
2022-10-25T15:22:02.085Z,27.46
2022-10-25T15:24:28.362Z,27.30
2022-10-25T15:26:54.708Z,27.27
2022-10-25T15:29:21.027Z,27.08
2022-10-25T15:31:47.383Z,26.90
2022-10-25T15:34:13.722Z,26.80
2022-10-25T15:36:40.079Z,26.66
2022-10-25T15:39:10.496Z,26.62
2022-10-25T15:41:32.738Z,26.62
2022-10-25T15:43:59.055Z,26.55
2022-10-25T15:46:25.384Z,26.41
2022-10-25T15:48:51.728Z,26.24
2022-10-25T15:51:18.088Z,26.09
2022-10-25T15:53:44.439Z,25.98
2022-10-25T15:56:10.777Z,25.92
2022-10-25T15:58:37.120Z,26.00
2022-10-25T16:01:03.532Z,26.04
2022-10-25T16:03:29.826Z,26.04
2022-10-25T16:05:56.145Z,26.08
2022-10-25T16:08:22.534Z,26.11
2022-10-25T16:10:48.851Z,26.11
2022-10-25T16:13:15.194Z,26.15
2022-10-25T16:15:41.547Z,26.19
2022-10-25T16:18:07.898Z,26.08
2022-10-25T16:20:34.229Z,26.02
2022-10-25T16:23:00.574Z,25.89
2022-10-25T16:25:30.527Z,25.81
2022-10-25T16:27:53.235Z,25.78
2022-10-25T16:30:19.595Z,25.80
2022-10-25T16:32:46.171Z,25.74
2022-10-25T16:35:12.312Z,25.67
2022-10-25T16:37:38.630Z,25.62
2022-10-25T16:40:04.979Z,25.52
2022-10-25T16:42:31.303Z,25.49
2022-10-25T16:44:57.664Z,25.49
2022-10-25T16:47:24.011Z,25.42
2022-10-25T16:49:50.354Z,25.37
2022-10-25T16:52:16.725Z,25.33
2022-10-25T16:54:43.065Z,25.32
2022-10-25T16:57:09.379Z,25.36
2022-10-25T16:59:35.715Z,25.36
2022-10-25T17:02:02.110Z,25.38
2022-10-25T17:04:28.361Z,25.41
2022-10-25T17:06:54.701Z,25.41
2022-10-25T17:09:21.047Z,25.31
2022-10-25T17:11:47.437Z,25.30
2022-10-25T17:14:13.783Z,25.33
2022-10-25T17:16:40.110Z,25.37
2022-10-25T17:19:06.471Z,25.37
2022-10-25T17:21:32.810Z,25.31
2022-10-25T17:23:59.214Z,25.29
2022-10-25T17:26:25.538Z,25.25
2022-10-25T17:28:51.933Z,25.17
2022-10-25T17:31:18.274Z,25.11
2022-10-25T17:33:44.618Z,25.02
2022-10-25T17:36:10.955Z,24.90
2022-10-25T17:38:37.330Z,24.85
2022-10-25T17:41:03.685Z,24.80
2022-10-25T17:43:30.035Z,24.86
2022-10-25T17:45:56.357Z,24.82
2022-10-25T17:48:22.686Z,24.78
2022-10-25T17:50:49.025Z,24.71
2022-10-25T17:53:15.383Z,24.48
2022-10-25T17:55:41.735Z,24.45
2022-10-25T17:58:08.053Z,24.42
2022-10-25T18:00:34.428Z,24.33
2022-10-25T18:03:00.782Z,24.28
2022-10-25T18:05:27.117Z,24.10
2022-10-25T18:07:53.496Z,23.99
2022-10-25T18:10:19.817Z,23.88
2022-10-25T18:12:46.563Z,23.82
2022-10-25T18:15:12.489Z,23.70
2022-10-25T18:17:38.838Z,23.49
2022-10-25T18:20:05.152Z,23.22
2022-10-25T18:22:31.479Z,23.13
2022-10-25T18:24:57.822Z,23.07
2022-10-25T18:27:24.167Z,22.93
2022-10-25T18:29:50.614Z,22.89
2022-10-25T18:32:16.937Z,22.73
2022-10-25T18:34:43.257Z,22.65
2022-10-25T18:37:09.602Z,22.64
2022-10-25T18:39:35.918Z,22.66
2022-10-25T18:42:02.262Z,22.61
2022-10-25T18:44:28.605Z,22.53
2022-10-25T18:46:54.965Z,22.46
2022-10-25T18:49:21.279Z,22.51
2022-10-25T18:51:47.615Z,22.54
2022-10-25T18:54:13.983Z,22.53
2022-10-25T18:56:40.332Z,22.43
2022-10-25T18:59:06.680Z,22.33
2022-10-25T19:01:33.310Z,22.29
2022-10-25T19:03:59.367Z,22.31
2022-10-25T19:06:25.749Z,22.27
2022-10-25T19:08:52.064Z,22.20
2022-10-25T19:11:18.389Z,22.13
2022-10-25T19:13:47.599Z,22.10
2022-10-25T19:16:11.116Z,22.02
2022-10-25T19:18:37.484Z,22.05
2022-10-25T19:21:03.784Z,22.04
2022-10-25T19:23:30.103Z,21.98
2022-10-25T19:25:56.482Z,21.97
2022-10-25T19:28:22.819Z,21.86
2022-10-25T19:30:49.148Z,21.78
2022-10-25T19:33:15.525Z,21.75
2022-10-25T19:35:41.845Z,21.77
2022-10-25T19:38:08.187Z,21.68
2022-10-25T19:40:34.527Z,21.67
2022-10-25T19:43:00.856Z,21.54
2022-10-25T19:45:27.194Z,21.61
2022-10-25T19:47:53.599Z,21.63
2022-10-25T19:50:19.992Z,21.55
2022-10-25T19:52:46.374Z,21.49
2022-10-25T19:55:12.703Z,21.48
2022-10-25T19:57:39.032Z,21.48
2022-10-25T20:00:08.615Z,21.49
2022-10-25T20:02:31.776Z,21.48
2022-10-25T20:04:58.088Z,21.38
2022-10-25T20:07:24.454Z,21.24
2022-10-25T20:09:50.781Z,21.22
2022-10-25T20:12:17.170Z,21.19
2022-10-25T20:14:43.503Z,21.12
2022-10-25T20:17:09.850Z,21.06
2022-10-25T20:19:36.194Z,20.98
2022-10-25T20:22:02.518Z,20.94
2022-10-25T20:24:28.847Z,20.95
2022-10-25T20:26:55.195Z,20.96
2022-10-25T20:29:21.717Z,20.88
2022-10-25T20:31:47.892Z,20.90
2022-10-25T20:34:14.234Z,20.93
2022-10-25T20:36:40.575Z,20.96
2022-10-25T20:39:06.908Z,20.95
2022-10-25T20:41:33.271Z,20.96
2022-10-25T20:43:59.623Z,20.93
2022-10-25T20:46:26.069Z,20.92
2022-10-25T20:48:52.338Z,20.89
2022-10-25T20:51:18.680Z,20.88
2022-10-25T20:53:45.019Z,20.93
2022-10-25T20:56:11.345Z,20.99
2022-10-25T20:58:37.710Z,20.99
2022-10-25T21:01:04.152Z,20.90
2022-10-25T21:03:30.381Z,20.85
2022-10-25T21:05:56.731Z,20.82
2022-10-25T21:08:23.071Z,20.79
2022-10-25T21:10:49.419Z,20.81
2022-10-25T21:13:15.756Z,20.82
2022-10-25T21:15:42.138Z,20.80
2022-10-25T21:18:08.460Z,20.82
2022-10-25T21:20:34.788Z,20.78
2022-10-25T21:23:01.147Z,20.83
2022-10-25T21:25:27.491Z,20.85
2022-10-25T21:27:53.830Z,20.76
2022-10-25T21:30:20.175Z,20.74
2022-10-25T21:32:46.520Z,20.73
2022-10-25T21:35:12.863Z,20.66
2022-10-25T21:37:39.174Z,20.59
2022-10-25T21:40:05.634Z,20.58
2022-10-25T21:42:31.970Z,20.56
2022-10-25T21:44:58.292Z,20.53
2022-10-25T21:47:24.614Z,20.49
2022-10-25T21:49:50.960Z,20.49
2022-10-25T21:52:17.275Z,20.42
2022-10-25T21:54:43.624Z,20.43
2022-10-25T21:57:09.943Z,20.39
2022-10-25T21:59:36.291Z,20.35
2022-10-25T22:02:02.826Z,20.35
2022-10-25T22:04:29.024Z,20.28
2022-10-25T22:06:55.865Z,20.28
2022-10-25T22:09:22.191Z,20.30
2022-10-25T22:11:48.545Z,20.27
2022-10-25T22:14:14.890Z,20.24
2022-10-25T22:16:41.232Z,20.30
2022-10-25T22:19:07.562Z,20.32
2022-10-25T22:21:33.876Z,20.24
2022-10-25T22:24:00.242Z,20.07
2022-10-25T22:26:26.586Z,20.04
2022-10-25T22:28:52.924Z,20.01
2022-10-25T22:31:19.268Z,19.99
2022-10-25T22:33:45.609Z,19.90
2022-10-25T22:36:11.938Z,19.88
2022-10-25T22:38:38.274Z,19.79
2022-10-25T22:41:04.614Z,19.80
2022-10-25T22:43:30.944Z,19.78
2022-10-25T22:45:57.307Z,19.82
2022-10-25T22:48:23.647Z,19.74
2022-10-25T22:50:49.984Z,19.80
2022-10-25T22:53:16.329Z,19.82
2022-10-25T22:55:42.647Z,19.84
2022-10-25T22:58:08.975Z,19.84
2022-10-25T23:00:35.355Z,19.75
2022-10-25T23:03:01.761Z,19.84
2022-10-25T23:05:28.032Z,19.90
2022-10-25T23:07:54.403Z,19.84
2022-10-25T23:10:20.743Z,19.83
2022-10-25T23:12:47.327Z,19.80
2022-10-25T23:15:13.444Z,19.79
2022-10-25T23:17:39.806Z,19.78
2022-10-25T23:20:06.105Z,19.74
2022-10-25T23:22:32.465Z,19.68
2022-10-25T23:24:58.820Z,19.62
2022-10-25T23:27:25.185Z,19.54
2022-10-25T23:29:51.520Z,19.54
2022-10-25T23:32:17.839Z,19.59
2022-10-25T23:34:44.176Z,19.51
2022-10-25T23:37:10.523Z,19.42
2022-10-25T23:39:36.908Z,19.43
2022-10-25T23:42:03.299Z,19.42
2022-10-25T23:44:29.876Z,19.41
2022-10-25T23:46:56.152Z,19.43
2022-10-25T23:49:22.489Z,19.40
2022-10-25T23:51:48.813Z,19.45
2022-10-25T23:54:15.158Z,19.48
2022-10-25T23:56:41.478Z,19.43
2022-10-25T23:59:07.852Z,19.39
